createdAt,value
2019-05-29T00:03:53.567Z,16
2019-05-29T00:09:10.183Z,16
2019-05-29T00:14:28.051Z,16
2019-05-29T00:24:57.197Z,16
2019-05-29T00:30:15.255Z,16
2019-05-29T00:35:29.131Z,16
2019-05-29T00:40:44.390Z,16
2019-05-29T00:45:59.480Z,16
2019-05-29T00:51:15.395Z,16
2019-05-29T00:56:30.154Z,16
2019-05-29T01:01:46.096Z,16
2019-05-29T01:06:59.971Z,16
2019-05-29T01:12:17.408Z,16
2019-05-29T01:17:33.132Z,16
2019-05-29T01:22:48.298Z,17
2019-05-29T01:28:04.545Z,17
2019-05-29T01:33:25.113Z,16
2019-05-29T01:38:40.315Z,16
2019-05-29T01:43:55.675Z,16
2019-05-29T01:49:11.719Z,16
2019-05-29T01:54:28.256Z,16
2019-05-29T01:59:43.364Z,16
2019-05-29T02:05:00.413Z,16
2019-05-29T02:10:16.312Z,16
2019-05-29T02:15:34.414Z,17
2019-05-29T02:20:48.931Z,17
2019-05-29T02:26:04.045Z,17
2019-05-29T02:31:26.502Z,17
2019-05-29T02:36:42.466Z,17
2019-05-29T02:41:57.285Z,17
2019-05-29T02:47:13.749Z,17
2019-05-29T02:52:30.916Z,17
2019-05-29T02:57:46.911Z,17
2019-05-29T03:03:05.886Z,17
2019-05-29T03:08:26.324Z,16
2019-05-29T03:13:43.860Z,16
2019-05-29T03:18:59.233Z,16
2019-05-29T03:24:14.180Z,17
2019-05-29T03:29:32.560Z,17
2019-05-29T03:34:48.849Z,17
2019-05-29T03:40:03.789Z,17
2019-05-29T03:45:18.875Z,17
2019-05-29T03:50:35.299Z,17
2019-05-29T03:55:50.383Z,17
2019-05-29T04:01:05.578Z,17
2019-05-29T04:06:20.833Z,17
2019-05-29T04:11:38.311Z,18
2019-05-29T04:17:00.866Z,18
2019-05-29T04:22:16.154Z,18
2019-05-29T04:27:36.241Z,18
2019-05-29T04:32:52.561Z,18
2019-05-29T04:38:08.413Z,18
2019-05-29T04:43:23.933Z,18
2019-05-29T04:48:40.763Z,19
2019-05-29T04:53:55.392Z,19
2019-05-29T04:59:13.325Z,19
2019-05-29T05:04:31.324Z,20
2019-05-29T05:09:47.827Z,21
2019-05-29T05:15:04.055Z,23
2019-05-29T05:20:20.716Z,24
2019-05-29T05:25:38.689Z,25
2019-05-29T05:30:55.258Z,27
2019-05-29T05:41:26.797Z,28
2019-05-29T06:23:44.057Z,25
2019-05-29T06:28:57.715Z,25
2019-05-29T07:05:33.281Z,24
2019-05-29T07:10:49.836Z,24
2019-05-29T07:21:20.452Z,24
2019-05-29T07:26:37.303Z,25
2019-05-29T07:31:53.932Z,25
2019-05-29T07:37:09.628Z,25
2019-05-29T07:42:25.201Z,25
2019-05-29T07:47:40.040Z,25
2019-05-29T07:48:16.507Z,25
2019-05-29T07:53:34.020Z,25
2019-05-29T07:59:03.834Z,26
2019-05-29T08:04:15.551Z,26
2019-05-29T08:14:46.157Z,25
2019-05-29T08:20:37.830Z,25
2019-05-29T08:25:52.194Z,26
2019-05-29T08:26:28.273Z,26
2019-05-29T08:31:44.642Z,26
2019-05-29T08:37:07.815Z,26
2019-05-29T08:47:37.921Z,26
2019-05-29T08:52:57.504Z,26
2019-05-29T08:58:13.569Z,26
2019-05-29T09:03:30.161Z,26
2019-05-29T09:08:52.027Z,26
2019-05-29T09:14:09.087Z,26
2019-05-29T09:24:36.545Z,26
2019-05-29T09:29:53.249Z,26
2019-05-29T09:40:23.447Z,27
2019-05-29T09:45:41.146Z,27
2019-05-29T09:46:21.546Z,27
2019-05-29T09:51:36.051Z,27
2019-05-29T09:57:25.269Z,27
2019-05-29T10:02:39.956Z,27
2019-05-29T10:13:09.151Z,28
2019-05-29T10:18:33.373Z,28
2019-05-29T10:23:49.004Z,28
2019-05-29T10:29:10.571Z,28
2019-05-29T11:00:40.107Z,29
2019-05-29T11:05:56.808Z,29
2019-05-29T11:58:32.020Z,29
2019-05-29T12:04:27.018Z,29
2019-05-29T12:09:39.741Z,29
2019-05-29T12:30:37.845Z,30
2019-05-29T12:35:57.228Z,30
2019-05-29T12:41:13.955Z,31
2019-05-29T12:46:30.800Z,31
2019-05-29T12:51:44.753Z,32
2019-05-29T12:57:04.409Z,33
2019-05-29T13:02:20.395Z,34
2019-05-29T13:07:36.856Z,34
2019-05-29T17:34:17.325Z,27
2019-05-29T17:39:33.349Z,27
2019-05-29T17:44:48.663Z,26
2019-05-29T17:50:04.046Z,26
2019-05-29T17:55:25.365Z,26
2019-05-29T18:00:42.570Z,25
2019-05-29T18:05:57.569Z,25
2019-05-29T18:11:12.536Z,25
2019-05-29T18:16:28.091Z,25
2019-05-29T18:21:42.786Z,25
2019-05-29T18:26:59.658Z,24
2019-05-29T18:32:14.994Z,24
2019-05-29T18:37:32.729Z,24
2019-05-29T18:42:47.987Z,24
2019-05-29T18:48:03.120Z,23
2019-05-29T18:53:18.086Z,23
2019-05-29T18:58:33.146Z,23
2019-05-29T19:03:48.410Z,23
2019-05-29T19:09:03.669Z,23
2019-05-29T19:14:18.657Z,22
2019-05-29T19:19:32.899Z,23
2019-05-29T19:24:48.578Z,23
2019-05-29T19:30:03.574Z,23
2019-05-29T19:35:18.714Z,23
2019-05-29T19:40:34.970Z,23
2019-05-29T19:45:50.139Z,23
2019-05-29T19:51:06.721Z,23
2019-05-29T19:56:22.363Z,22
2019-05-29T20:01:40.864Z,22
2019-05-29T20:06:56.991Z,23
2019-05-29T20:12:12.977Z,23
2019-05-29T20:17:28.260Z,23
2019-05-29T20:22:43.067Z,23
2019-05-29T20:28:07.221Z,23
2019-05-29T20:33:21.226Z,23
2019-05-29T20:38:39.545Z,23
2019-05-29T20:43:54.519Z,23
2019-05-29T20:49:09.436Z,23
2019-05-29T20:54:25.483Z,22
2019-05-29T20:59:40.304Z,22
2019-05-29T21:04:55.424Z,22
2019-05-29T21:10:11.533Z,22
2019-05-29T21:15:26.636Z,22
2019-05-29T21:20:44.453Z,22
2019-05-29T21:26:00.430Z,22
2019-05-29T21:31:14.616Z,21
2019-05-29T21:36:30.901Z,21
2019-05-29T21:41:47.232Z,21
2019-05-29T21:47:02.278Z,21
2019-05-29T21:52:18.214Z,21
2019-05-29T21:57:33.477Z,21
2019-05-29T21:58:09.885Z,21
2019-05-29T22:03:24.831Z,21
2019-05-29T22:08:41.159Z,21
2019-05-29T22:13:56.847Z,21
2019-05-29T22:19:11.908Z,21
2019-05-29T22:24:27.001Z,21
2019-05-29T22:29:42.063Z,21
2019-05-29T22:34:58.074Z,21
2019-05-29T22:40:14.127Z,21
2019-05-29T22:55:56.022Z,19
2019-05-29T23:01:12.149Z,18
2019-05-29T23:06:27.379Z,18
2019-05-29T23:11:43.985Z,18
2019-05-29T23:16:56.761Z,18
2019-05-29T23:22:13.845Z,18
2019-05-29T23:27:28.997Z,18
2019-05-29T23:32:43.916Z,18
2019-05-29T23:37:57.295Z,18
2019-05-29T23:43:13.057Z,18
2019-05-29T23:48:28.090Z,18
2019-05-29T23:53:43.231Z,18
